Time;durP1;ratioP1;P1;durP2;ratioP2;P2;SDS_P1;SDS_P2;PMS_P1;PMS_P2;Temp;Humidity;BMP_temperature;BMP_pressure;BME280_temperature;BME280_humidity;BME280_pressure;Samples;Min_cycle;Max_cycle;Signal;HPM_P1;HPM_P2
2023/08/03 00:01:35;;;;;;;6.93;3.40;;;;;;;;;;5055623;28;20495;-78
2023/08/03 00:04:01;;;;;;;7.65;3.25;;;;;;;;;;5055876;28;20102;-78
2023/08/03 00:06:27;;;;;;;5.88;3.00;;;;;;;;;;5055934;28;20163;-78
2023/08/03 00:08:54;;;;;;;6.82;3.05;;;;;;;;;;5055816;28;20052;-78
2023/08/03 00:11:20;;;;;;;6.93;3.35;;;;;;;;;;5055592;28;20048;-78
2023/08/03 00:13:46;;;;;;;8.13;3.38;;;;;;;;;;5055529;28;20045;-78
2023/08/03 00:16:12;;;;;;;4.22;2.80;;;;;;;;;;5055710;28;20041;-78
2023/08/03 00:18:38;;;;;;;7.10;3.40;;;;;;;;;;5055671;28;20121;-78
2023/08/03 00:21:04;;;;;;;5.90;3.15;;;;;;;;;;5054567;28;20041;-78
2023/08/03 00:23:30;;;;;;;5.05;2.97;;;;;;;;;;5055554;28;20045;-78
2023/08/03 00:25:56;;;;;;;6.80;3.08;;;;;;;;;;5055049;28;20493;-78
2023/08/03 00:28:22;;;;;;;5.10;2.95;;;;;;;;;;5055153;28;20052;-78
2023/08/03 00:30:48;;;;;;;6.97;3.28;;;;;;;;;;5040697;28;20122;-78
2023/08/03 00:33:14;;;;;;;4.60;3.03;;;;;;;;;;5046403;28;20052;-78
2023/08/03 00:35:40;;;;;;;5.25;3.22;;;;;;;;;;5055454;28;20116;-78
2023/08/03 00:38:06;;;;;;;7.63;3.60;;;;;;;;;;5054658;28;20095;-78
2023/08/03 00:40:33;;;;;;;4.43;3.15;;;;;;;;;;5055769;28;20045;-78
2023/08/03 00:43:04;;;;;;;5.68;3.25;;;;;;;;;;5054250;28;20049;-78
2023/08/03 00:45:30;;;;;;;5.60;3.00;;;;;;;;;;5056401;28;20484;-79
2023/08/03 00:47:56;;;;;;;6.82;3.22;;;;;;;;;;5060708;28;20037;-79
2023/08/03 00:50:22;;;;;;;7.50;3.28;;;;;;;;;;5046299;28;20042;-79
2023/08/03 00:52:48;;;;;;;11.60;3.28;;;;;;;;;;5052222;28;20053;-79
2023/08/03 00:55:14;;;;;;;5.50;3.13;;;;;;;;;;5055540;28;20383;-78
2023/08/03 00:57:41;;;;;;;9.35;3.50;;;;;;;;;;5054236;28;20114;-78
2023/08/03 01:00:07;;;;;;;6.63;3.22;;;;;;;;;;5044630;28;20041;-78
2023/08/03 01:02:33;;;;;;;5.05;3.22;;;;;;;;;;5049851;28;20041;-78
2023/08/03 01:04:59;;;;;;;6.00;2.97;;;;;;;;;;5035843;28;20091;-78
2023/08/03 01:07:26;;;;;;;4.75;3.00;;;;;;;;;;5038366;28;20037;-79
2023/08/03 01:09:52;;;;;;;3.65;2.92;;;;;;;;;;5034917;28;20048;-78
2023/08/03 01:12:18;;;;;;;5.95;2.85;;;;;;;;;;5048743;28;20041;-78
2023/08/03 01:14:47;;;;;;;5.18;3.20;;;;;;;;;;5054619;28;20041;-77
2023/08/03 01:17:13;;;;;;;7.18;3.10;;;;;;;;;;5054624;28;20041;-77
2023/08/03 01:19:40;;;;;;;4.68;2.80;;;;;;;;;;5054144;28;20045;-77
2023/08/03 01:22:07;;;;;;;4.05;2.60;;;;;;;;;;5054032;28;20415;-77
2023/08/03 01:24:33;;;;;;;6.28;3.00;;;;;;;;;;5053940;28;20497;-77
2023/08/03 01:26:59;;;;;;;7.00;3.10;;;;;;;;;;5050901;28;20441;-77
2023/08/03 01:29:26;;;;;;;5.05;2.67;;;;;;;;;;5043414;28;20138;-77
2023/08/03 01:31:56;;;;;;;4.50;2.63;;;;;;;;;;5053753;28;20083;-77
2023/08/03 01:34:23;;;;;;;4.57;2.75;;;;;;;;;;5054593;28;20076;-77
2023/08/03 01:36:49;;;;;;;5.18;3.05;;;;;;;;;;5053980;28;20037;-77
2023/08/03 01:39:15;;;;;;;4.28;2.75;;;;;;;;;;5046716;28;20058;-78
2023/08/03 01:41:42;;;;;;;4.60;2.95;;;;;;;;;;5033765;28;20046;-78
2023/08/03 01:44:21;;;;;;;5.38;3.42;;;;;;;;;;5050750;28;20053;-78
2023/08/03 01:46:47;;;;;;;5.30;2.90;;;;;;;;;;5033886;28;20433;-78
2023/08/03 01:49:13;;;;;;;6.95;2.90;;;;;;;;;;5034376;28;20091;-78
2023/08/03 01:51:40;;;;;;;4.97;2.83;;;;;;;;;;5033853;28;20045;-78
2023/08/03 01:54:06;;;;;;;5.78;2.75;;;;;;;;;;5043407;28;20114;-78
2023/08/03 01:56:32;;;;;;;5.30;3.00;;;;;;;;;;5053261;28;20136;-78
2023/08/03 01:58:58;;;;;;;5.05;3.47;;;;;;;;;;5034056;28;20038;-78
2023/08/03 02:01:24;;;;;;;4.90;2.80;;;;;;;;;;5033679;28;20052;-78
2023/08/03 02:03:50;;;;;;;4.63;3.10;;;;;;;;;;5036371;28;20091;-78
2023/08/03 02:06:16;;;;;;;4.38;3.17;;;;;;;;;;5036793;28;20087;-78
2023/08/03 02:08:43;;;;;;;4.25;3.20;;;;;;;;;;5034099;28;20137;-78
2023/08/03 02:11:09;;;;;;;4.13;3.00;;;;;;;;;;5035129;28;20488;-78
2023/08/03 02:13:35;;;;;;;4.72;3.13;;;;;;;;;;5033862;28;20050;-78
2023/08/03 02:16:09;;;;;;;4.35;3.15;;;;;;;;;;5033644;28;20091;-78
2023/08/03 02:18:35;;;;;;;4.35;3.45;;;;;;;;;;5052448;28;20402;-78
2023/08/03 02:21:01;;;;;;;4.90;3.33;;;;;;;;;;5053179;28;20045;-78
2023/08/03 02:23:27;;;;;;;5.22;3.45;;;;;;;;;;5053442;28;20037;-78
2023/08/03 02:25:53;;;;;;;5.78;3.63;;;;;;;;;;5052921;28;20539;-78
2023/08/03 02:28:19;;;;;;;4.38;3.13;;;;;;;;;;5053663;28;20049;-78
2023/08/03 02:30:45;;;;;;;6.50;3.95;;;;;;;;;;5045642;28;20428;-79
2023/08/03 02:33:12;;;;;;;7.18;3.97;;;;;;;;;;5048718;28;20411;-79
2023/08/03 02:35:39;;;;;;;5.30;3.72;;;;;;;;;;5045581;28;20461;-79
2023/08/03 02:38:08;;;;;;;6.15;3.58;;;;;;;;;;5051346;28;20057;-79
2023/08/03 02:40:35;;;;;;;6.07;3.50;;;;;;;;;;5033587;28;20041;-78
2023/08/03 02:43:01;;;;;;;7.70;3.92;;;;;;;;;;5036210;28;20103;-79
2023/08/03 02:45:27;;;;;;;6.05;3.47;;;;;;;;;;5048349;28;20494;-80
2023/08/03 02:47:53;;;;;;;4.40;3.50;;;;;;;;;;5058583;28;20045;-79
2023/08/03 02:50:19;;;;;;;5.10;3.67;;;;;;;;;;5057625;28;20121;-80
2023/08/03 02:52:45;;;;;;;5.65;3.60;;;;;;;;;;5062952;28;20045;-79
2023/08/03 02:55:11;;;;;;;4.93;3.67;;;;;;;;;;5051101;28;20041;-78
2023/08/03 02:57:38;;;;;;;7.97;3.70;;;;;;;;;;5038904;28;20096;-79
2023/08/03 03:00:04;;;;;;;5.20;3.60;;;;;;;;;;5041863;28;20129;-79
2023/08/03 03:02:30;;;;;;;4.88;3.60;;;;;;;;;;5053909;28;20106;-79
2023/08/03 03:04:56;;;;;;;6.70;3.47;;;;;;;;;;5048875;28;20135;-80
2023/08/03 03:07:22;;;;;;;2.90;2.58;;;;;;;;;;5046796;28;20087;-79
2023/08/03 03:09:48;;;;;;;3.65;2.65;;;;;;;;;;5056277;28;20425;-78
2023/08/03 03:12:14;;;;;;;4.20;2.40;;;;;;;;;;5044594;28;20056;-78
2023/08/03 03:14:40;;;;;;;4.15;2.50;;;;;;;;;;5040064;28;20045;-78
2023/08/03 03:17:07;;;;;;;3.58;2.92;;;;;;;;;;5052850;28;20037;-78
2023/08/03 03:19:33;;;;;;;5.20;2.85;;;;;;;;;;5052642;28;20134;-79
2023/08/03 03:21:59;;;;;;;3.83;2.78;;;;;;;;;;5048877;28;20038;-78
2023/08/03 03:24:25;;;;;;;3.83;2.90;;;;;;;;;;5032840;28;20041;-78
2023/08/03 03:26:51;;;;;;;4.05;2.60;;;;;;;;;;5032940;28;20041;-78
2023/08/03 03:29:17;;;;;;;4.78;2.90;;;;;;;;;;5035558;28;20049;-78
2023/08/03 03:31:44;;;;;;;5.63;3.05;;;;;;;;;;5047644;28;20080;-78
2023/08/03 03:34:10;;;;;;;4.85;3.03;;;;;;;;;;5036307;28;20124;-78
2023/08/03 03:36:36;;;;;;;6.03;3.65;;;;;;;;;;5036300;28;20487;-78
2023/08/03 03:39:02;;;;;;;5.15;3.10;;;;;;;;;;5051382;28;20436;-78
2023/08/03 03:41:28;;;;;;;4.88;3.40;;;;;;;;;;5041115;28;20045;-78
2023/08/03 03:43:54;;;;;;;5.15;3.15;;;;;;;;;;5051337;28;20041;-78
2023/08/03 03:46:20;;;;;;;10.02;3.90;;;;;;;;;;5032711;28;20091;-78
2023/08/03 03:48:46;;;;;;;6.28;4.40;;;;;;;;;;5034210;28;20042;-78
2023/08/03 03:51:12;;;;;;;8.50;4.90;;;;;;;;;;5052369;28;20510;-78
2023/08/03 03:53:38;;;;;;;5.95;4.10;;;;;;;;;;5052995;28;20041;-78
2023/08/03 03:56:04;;;;;;;5.18;3.88;;;;;;;;;;5055715;28;20120;-78
2023/08/03 03:58:31;;;;;;;7.75;4.13;;;;;;;;;;5055818;28;20392;-78
2023/08/03 04:00:57;;;;;;;4.45;3.80;;;;;;;;;;5023914;28;20068;-78
2023/08/03 04:03:26;;;;;;;6.25;4.03;;;;;;;;;;5042634;28;20492;-78
2023/08/03 04:05:52;;;;;;;5.07;4.28;;;;;;;;;;5056583;28;20045;-78
2023/08/03 04:08:18;;;;;;;4.28;3.70;;;;;;;;;;5055941;28;20036;-78
2023/08/03 04:10:44;;;;;;;5.03;4.20;;;;;;;;;;5052912;28;20041;-78
2023/08/03 04:13:10;;;;;;;6.07;4.63;;;;;;;;;;5055807;28;20041;-78
2023/08/03 04:15:36;;;;;;;5.25;4.15;;;;;;;;;;5055476;28;20403;-78
2023/08/03 04:18:03;;;;;;;6.53;4.22;;;;;;;;;;5055853;28;20146;-78
2023/08/03 04:20:29;;;;;;;5.05;4.22;;;;;;;;;;5040814;28;20103;-78
2023/08/03 04:22:55;;;;;;;5.53;3.97;;;;;;;;;;5045090;28;20071;-78
2023/08/03 04:25:21;;;;;;;5.57;4.00;;;;;;;;;;5048134;28;20381;-78
2023/08/03 04:27:47;;;;;;;6.80;4.85;;;;;;;;;;5035425;28;20526;-78
2023/08/03 04:30:16;;;;;;;6.72;4.68;;;;;;;;;;5044805;28;20136;-78
2023/08/03 04:32:42;;;;;;;6.70;4.88;;;;;;;;;;5055200;28;20128;-78
2023/08/03 04:35:09;;;;;;;6.57;5.18;;;;;;;;;;5038085;28;20045;-78
2023/08/03 04:37:35;;;;;;;7.10;5.55;;;;;;;;;;5054767;28;20538;-78
2023/08/03 04:40:03;;;;;;;6.82;5.13;;;;;;;;;;5054148;28;20156;-78
2023/08/03 04:42:29;;;;;;;8.13;5.68;;;;;;;;;;5054957;28;20106;-78
2023/08/03 04:44:56;;;;;;;6.95;5.32;;;;;;;;;;5050860;28;20411;-78
2023/08/03 04:47:22;;;;;;;30.02;7.45;;;;;;;;;;5053294;28;20055;-78
2023/08/03 04:49:48;;;;;;;65.68;8.88;;;;;;;;;;5054856;28;20041;-78
2023/08/03 04:52:14;;;;;;;33.17;8.77;;;;;;;;;;5055136;28;20048;-78
2023/08/03 04:54:40;;;;;;;26.55;6.40;;;;;;;;;;5054754;28;20068;-78
2023/08/03 04:57:06;;;;;;;32.50;7.15;;;;;;;;;;5049144;28;20041;-78
2023/08/03 04:59:32;;;;;;;32.05;6.90;;;;;;;;;;5035153;28;20045;-78
2023/08/03 05:01:58;;;;;;;28.85;6.30;;;;;;;;;;5035849;28;20052;-78
2023/08/03 05:04:25;;;;;;;12.18;4.63;;;;;;;;;;5035162;28;20049;-78
2023/08/03 05:06:52;;;;;;;26.90;6.28;;;;;;;;;;5034528;28;20073;-78
2023/08/03 05:09:18;;;;;;;21.92;6.45;;;;;;;;;;5040664;28;20407;-78
2023/08/03 05:11:44;;;;;;;11.02;5.00;;;;;;;;;;5052279;28;20124;-78
2023/08/03 05:14:10;;;;;;;10.27;4.80;;;;;;;;;;5054586;28;20045;-78
2023/08/03 05:16:36;;;;;;;6.13;4.60;;;;;;;;;;5054529;28;20045;-78
2023/08/03 05:19:02;;;;;;;5.95;4.93;;;;;;;;;;5050342;28;20046;-78
2023/08/03 05:21:28;;;;;;;6.00;4.93;;;;;;;;;;5052850;28;20132;-79
2023/08/03 05:23:54;;;;;;;5.70;5.03;;;;;;;;;;5057250;28;20115;-79
2023/08/03 05:26:20;;;;;;;6.95;5.00;;;;;;;;;;5054801;28;20080;-80
2023/08/03 05:28:46;;;;;;;6.18;4.60;;;;;;;;;;5054922;28;20045;-80
2023/08/03 05:31:12;;;;;;;10.00;4.70;;;;;;;;;;5039513;28;20068;-79
2023/08/03 05:33:38;;;;;;;6.75;4.60;;;;;;;;;;5033063;28;20065;-79
2023/08/03 05:36:09;;;;;;;6.65;5.20;;;;;;;;;;5034517;28;20052;-79
2023/08/03 05:38:35;;;;;;;5.00;4.00;;;;;;;;;;5046089;28;20053;-79
2023/08/03 05:41:01;;;;;;;6.38;4.70;;;;;;;;;;5048447;28;20045;-79
2023/08/03 05:43:28;;;;;;;5.05;4.00;;;;;;;;;;5054701;28;20041;-79
2023/08/03 05:45:57;;;;;;;6.40;4.00;;;;;;;;;;5054250;28;20048;-79
2023/08/03 05:48:23;;;;;;;5.38;3.70;;;;;;;;;;5039819;28;20045;-78
2023/08/03 05:50:51;;;;;;;6.43;3.80;;;;;;;;;;5035694;28;20087;-78
2023/08/03 05:53:17;;;;;;;5.72;3.53;;;;;;;;;;5052569;28;20060;-78
2023/08/03 05:55:44;;;;;;;5.50;3.28;;;;;;;;;;5053394;28;20037;-78
2023/08/03 05:58:12;;;;;;;4.95;3.63;;;;;;;;;;5033621;28;20056;-79
2023/08/03 06:00:40;;;;;;;5.78;3.67;;;;;;;;;;5045025;28;20052;-78
2023/08/03 06:03:06;;;;;;;4.78;3.10;;;;;;;;;;5034474;28;20050;-78
2023/08/03 06:05:43;;;;;;;4.88;3.13;;;;;;;;;;5035992;28;20056;-78
2023/08/03 06:08:12;;;;;;;3.40;2.80;;;;;;;;;;5046180;28;20045;-78
2023/08/03 06:10:39;;;;;;;4.57;2.45;;;;;;;;;;5037557;28;20052;-78
2023/08/03 06:13:05;;;;;;;3.10;2.30;;;;;;;;;;5034798;28;20037;-78
2023/08/03 06:15:31;;;;;;;5.63;2.75;;;;;;;;;;5033940;28;20090;-78
2023/08/03 06:18:05;;;;;;;3.92;2.20;;;;;;;;;;5040682;28;20042;-78
2023/08/03 06:20:31;;;;;;;4.15;2.10;;;;;;;;;;5033749;28;20060;-78
2023/08/03 06:22:57;;;;;;;3.13;2.20;;;;;;;;;;5033314;28;20108;-78
2023/08/03 06:25:23;;;;;;;3.75;2.00;;;;;;;;;;5033165;28;20052;-78
2023/08/03 06:27:50;;;;;;;4.53;2.20;;;;;;;;;;5039198;28;20046;-78
2023/08/03 06:30:17;;;;;;;6.40;2.33;;;;;;;;;;5044615;28;20068;-78
2023/08/03 06:32:43;;;;;;;2.72;2.10;;;;;;;;;;5053520;28;20043;-79
2023/08/03 06:35:32;;;;;;;2.47;1.73;;;;;;;;;;5046980;28;20041;-78
2023/08/03 06:38:00;;;;;;;3.17;1.83;;;;;;;;;;5041661;28;20495;-78
2023/08/03 06:40:26;;;;;;;5.30;2.30;;;;;;;;;;5056291;28;20128;-82
2023/08/03 06:42:52;;;;;;;3.65;1.92;;;;;;;;;;5056541;28;20049;-81
2023/08/03 06:45:18;;;;;;;7.10;2.45;;;;;;;;;;5044545;28;20045;-81
2023/08/03 06:47:44;;;;;;;4.65;2.13;;;;;;;;;;5047890;28;20081;-81
2023/08/03 06:50:10;;;;;;;6.07;2.10;;;;;;;;;;5055524;28;20048;-81
2023/08/03 06:52:36;;;;;;;5.20;2.10;;;;;;;;;;5046376;28;20053;-80
2023/08/03 06:55:03;;;;;;;3.58;2.00;;;;;;;;;;5036359;28;20049;-80
2023/08/03 06:57:29;;;;;;;6.43;2.03;;;;;;;;;;5052920;28;20487;-80
2023/08/03 06:59:56;;;;;;;5.40;1.83;;;;;;;;;;5045961;28;20384;-80
2023/08/03 07:02:22;;;;;;;4.57;2.67;;;;;;;;;;5036114;28;20132;-80
2023/08/03 07:04:48;;;;;;;4.07;2.28;;;;;;;;;;5039055;28;20080;-81
2023/08/03 07:07:14;;;;;;;8.75;2.60;;;;;;;;;;5046179;28;20045;-80
2023/08/03 07:09:40;;;;;;;2.30;1.67;;;;;;;;;;5045994;28;20049;-80
2023/08/03 07:12:10;;;;;;;5.20;2.22;;;;;;;;;;5036423;28;20144;-80
2023/08/03 07:14:36;;;;;;;4.38;2.10;;;;;;;;;;5044410;28;20045;-80
2023/08/03 07:17:02;;;;;;;3.15;1.98;;;;;;;;;;5075923;28;20505;-80
2023/08/03 07:19:28;;;;;;;5.72;2.20;;;;;;;;;;5075708;28;20100;-80
2023/08/03 07:21:54;;;;;;;6.90;2.28;;;;;;;;;;5075989;28;20041;-80
2023/08/03 07:24:20;;;;;;;5.50;2.00;;;;;;;;;;5071867;28;20133;-80
2023/08/03 07:26:49;;;;;;;4.15;1.95;;;;;;;;;;5055661;28;20133;-80
2023/08/03 07:29:15;;;;;;;6.82;2.38;;;;;;;;;;5055946;28;20041;-80
2023/08/03 07:31:41;;;;;;;5.85;2.20;;;;;;;;;;5058668;28;20127;-80
2023/08/03 07:34:07;;;;;;;5.00;2.03;;;;;;;;;;5059967;28;20056;-81
2023/08/03 07:36:33;;;;;;;6.82;2.78;;;;;;;;;;5059739;28;20091;-81
2023/08/03 07:38:59;;;;;;;8.00;2.80;;;;;;;;;;5059558;28;20057;-81
2023/08/03 07:41:26;;;;;;;6.80;2.40;;;;;;;;;;5053818;28;20111;-81
2023/08/03 07:43:52;;;;;;;5.07;2.50;;;;;;;;;;5040313;28;20171;-81
2023/08/03 07:46:18;;;;;;;7.85;2.72;;;;;;;;;;5040009;28;20042;-81
2023/08/03 07:48:44;;;;;;;9.90;3.33;;;;;;;;;;5038752;28;20400;-81
2023/08/03 07:51:11;;;;;;;7.53;2.85;;;;;;;;;;5039067;28;20506;-81
2023/08/03 07:53:37;;;;;;;8.65;2.75;;;;;;;;;;5039617;28;20052;-84
2023/08/03 07:56:04;;;;;;;7.00;2.97;;;;;;;;;;5040386;28;20045;-78
2023/08/03 07:58:30;;;;;;;8.95;3.03;;;;;;;;;;5046095;28;20087;-78
2023/08/03 08:01:05;;;;;;;7.40;3.33;;;;;;;;;;5041949;28;20045;-79
2023/08/03 08:03:31;;;;;;;7.65;2.78;;;;;;;;;;5039670;28;20077;-79
2023/08/03 08:06:10;;;;;;;6.97;3.40;;;;;;;;;;5040081;28;20124;-79
2023/08/03 08:08:37;;;;;;;5.45;3.08;;;;;;;;;;5035875;28;20045;-79
2023/08/03 08:11:03;;;;;;;9.23;3.40;;;;;;;;;;5051274;28;20045;-79
2023/08/03 08:13:29;;;;;;;8.90;3.03;;;;;;;;;;5054542;28;20357;-78
2023/08/03 08:16:02;;;;;;;9.23;2.80;;;;;;;;;;5040467;28;20124;-78
2023/08/03 08:18:29;;;;;;;7.97;3.45;;;;;;;;;;5050066;28;20128;-78
2023/08/03 08:20:56;;;;;;;7.25;3.10;;;;;;;;;;5055659;28;20098;-78
2023/08/03 08:23:22;;;;;;;11.32;3.50;;;;;;;;;;5055431;28;20401;-78
2023/08/03 08:25:48;;;;;;;6.75;2.97;;;;;;;;;;5055346;28;20450;-78
2023/08/03 08:28:14;;;;;;;9.50;3.40;;;;;;;;;;5055347;28;20492;-78
2023/08/03 08:30:40;;;;;;;8.50;3.53;;;;;;;;;;5043527;28;20064;-78
2023/08/03 08:33:06;;;;;;;8.35;3.72;;;;;;;;;;5037506;28;20041;-78
2023/08/03 08:35:32;;;;;;;10.43;3.25;;;;;;;;;;5052426;28;20332;-78
2023/08/03 08:37:59;;;;;;;10.63;3.20;;;;;;;;;;5037456;28;20115;-78
2023/08/03 08:40:28;;;;;;;6.35;3.33;;;;;;;;;;5055751;28;20053;-78
2023/08/03 08:42:56;;;;;;;7.47;3.75;;;;;;;;;;5053952;28;20053;-78
2023/08/03 08:45:23;;;;;;;8.32;2.95;;;;;;;;;;5055245;28;20099;-77
2023/08/03 08:47:49;;;;;;;9.45;3.35;;;;;;;;;;5055141;28;20041;-77
2023/08/03 08:50:15;;;;;;;9.35;3.30;;;;;;;;;;5054758;28;20067;-77
2023/08/03 08:52:43;;;;;;;5.88;2.55;;;;;;;;;;5042127;28;20045;-77
2023/08/03 08:55:12;;;;;;;7.85;2.97;;;;;;;;;;5035697;28;20126;-77
2023/08/03 08:57:39;;;;;;;8.30;3.22;;;;;;;;;;5047085;28;20120;-77
2023/08/03 09:00:06;;;;;;;11.40;3.42;;;;;;;;;;5052814;28;20376;-78
2023/08/03 09:02:32;;;;;;;7.47;2.78;;;;;;;;;;5053564;28;20045;-78
2023/08/03 09:05:08;;;;;;;8.32;2.85;;;;;;;;;;5039118;28;20085;-78
2023/08/03 09:07:34;;;;;;;7.90;3.03;;;;;;;;;;5035511;28;20080;-78
2023/08/03 09:10:02;;;;;;;8.57;2.95;;;;;;;;;;5038685;28;20041;-79
2023/08/03 09:12:28;;;;;;;8.07;3.10;;;;;;;;;;5051341;28;20041;-79
2023/08/03 09:14:55;;;;;;;7.82;2.75;;;;;;;;;;5034440;28;20045;-78
2023/08/03 09:17:25;;;;;;;5.30;2.70;;;;;;;;;;5053528;28;20041;-82
2023/08/03 09:19:54;;;;;;;17.98;3.30;;;;;;;;;;5037493;28;20060;-81
2023/08/03 09:22:21;;;;;;;10.23;2.80;;;;;;;;;;5036152;28;20488;-78
2023/08/03 09:24:47;;;;;;;10.30;3.08;;;;;;;;;;5046801;28;20551;-79
2023/08/03 09:27:17;;;;;;;6.50;2.55;;;;;;;;;;5059466;28;20049;-81
2023/08/03 09:29:43;;;;;;;10.02;2.97;;;;;;;;;;5057626;28;20124;-80
2023/08/03 09:32:09;;;;;;;5.45;2.50;;;;;;;;;;5058582;28;20522;-80
2023/08/03 09:34:36;;;;;;;12.07;2.40;;;;;;;;;;5052534;28;20041;-79
2023/08/03 09:37:03;;;;;;;5.90;2.30;;;;;;;;;;5058974;28;20344;-80
2023/08/03 09:39:34;;;;;;;6.43;2.05;;;;;;;;;;5060445;28;20539;-79
2023/08/03 09:42:03;;;;;;;5.28;2.10;;;;;;;;;;5060752;28;20502;-80
2023/08/03 09:44:36;;;;;;;5.32;2.33;;;;;;;;;;5054646;28;20042;-80
2023/08/03 09:47:05;;;;;;;3.75;1.88;;;;;;;;;;5040909;28;20049;-79
2023/08/03 09:49:32;;;;;;;5.45;2.03;;;;;;;;;;5039427;28;20080;-79
2023/08/03 09:52:04;;;;;;;4.40;2.05;;;;;;;;;;5041115;28;20048;-79
2023/08/03 09:54:30;;;;;;;6.55;2.40;;;;;;;;;;5045296;28;20044;-79
2023/08/03 09:56:59;;;;;;;5.40;1.77;;;;;;;;;;5046005;28;20145;-79
2023/08/03 09:59:26;;;;;;;4.55;1.92;;;;;;;;;;5045355;28;20050;-79
2023/08/03 10:01:53;;;;;;;5.15;1.88;;;;;;;;;;5044306;28;20041;-80
2023/08/03 10:04:20;;;;;;;3.20;1.70;;;;;;;;;;5044572;28;20057;-80
2023/08/03 10:06:51;;;;;;;2.50;1.60;;;;;;;;;;5048823;28;20120;-80
2023/08/03 10:09:21;;;;;;;2.47;1.52;;;;;;;;;;5051644;28;20053;-79
2023/08/03 10:11:48;;;;;;;5.65;1.75;;;;;;;;;;5063402;28;20052;-79
2023/08/03 10:14:17;;;;;;;5.57;2.00;;;;;;;;;;5059873;28;20041;-79
2023/08/03 10:16:44;;;;;;;5.65;1.80;;;;;;;;;;5046277;28;20049;-79
2023/08/03 10:19:11;;;;;;;5.28;1.98;;;;;;;;;;5034439;28;20091;-78
2023/08/03 10:21:37;;;;;;;5.18;2.05;;;;;;;;;;5034470;28;20476;-78
2023/08/03 10:24:18;;;;;;;5.05;2.25;;;;;;;;;;5034744;28;20042;-78
2023/08/03 10:26:44;;;;;;;4.97;2.00;;;;;;;;;;5034042;28;20049;-78
2023/08/03 10:29:10;;;;;;;4.65;1.92;;;;;;;;;;5033361;28;20092;-80
2023/08/03 10:31:53;;;;;;;3.85;1.83;;;;;;;;;;5033749;28;20049;-78
2023/08/03 10:34:26;;;;;;;2.95;2.00;;;;;;;;;;5040480;28;20072;-79
2023/08/03 10:36:55;;;;;;;3.67;2.00;;;;;;;;;;5053276;28;20124;-78
2023/08/03 10:39:40;;;;;;;4.10;1.80;;;;;;;;;;5034242;28;20053;-78
2023/08/03 10:42:22;;;;;;;2.55;1.73;;;;;;;;;;5033998;28;20057;-78
2023/08/03 10:44:49;;;;;;;5.60;1.85;;;;;;;;;;5033504;28;20076;-78
2023/08/03 10:47:21;;;;;;;6.55;2.08;;;;;;;;;;5045507;28;20041;-80
2023/08/03 10:49:49;;;;;;;7.35;2.10;;;;;;;;;;5037566;28;20136;-80
2023/08/03 10:52:28;;;;;;;4.40;1.98;;;;;;;;;;5041356;28;20542;-79
2023/08/03 10:54:55;;;;;;;4.35;1.85;;;;;;;;;;5038778;28;20049;-79
2023/08/03 10:57:24;;;;;;;3.72;1.90;;;;;;;;;;5042306;28;20352;-79
2023/08/03 10:59:55;;;;;;;8.02;2.63;;;;;;;;;;5038046;28;20125;-78
2023/08/03 11:02:31;;;;;;;5.35;2.97;;;;;;;;;;5037340;28;20042;-78
2023/08/03 11:04:58;;;;;;;5.63;2.40;;;;;;;;;;5044349;28;20045;-79
2023/08/03 11:07:35;;;;;;;5.05;2.75;;;;;;;;;;5054234;28;20072;-78
2023/08/03 11:10:02;;;;;;;5.95;2.63;;;;;;;;;;5055619;28;20048;-78
2023/08/03 11:12:28;;;;;;;5.05;2.63;;;;;;;;;;5057601;28;20049;-78
2023/08/03 11:14:55;;;;;;;9.55;3.00;;;;;;;;;;5057654;28;20048;-78
2023/08/03 11:17:26;;;;;;;7.10;2.40;;;;;;;;;;5036808;28;20101;-78
2023/08/03 11:19:52;;;;;;;6.10;2.10;;;;;;;;;;5037996;28;20041;-78
2023/08/03 11:22:22;;;;;;;5.05;2.13;;;;;;;;;;5036690;28;20373;-78
2023/08/03 11:24:50;;;;;;;7.47;2.42;;;;;;;;;;5042484;28;20048;-78
2023/08/03 11:27:17;;;;;;;5.13;2.13;;;;;;;;;;5055868;28;20040;-78
2023/08/03 11:29:43;;;;;;;9.27;2.50;;;;;;;;;;5055387;28;20055;-79
2023/08/03 11:32:11;;;;;;;10.77;2.92;;;;;;;;;;5055093;28;20554;-79
2023/08/03 11:34:38;;;;;;;5.80;2.40;;;;;;;;;;5051455;28;20049;-78
2023/08/03 11:37:05;;;;;;;7.70;2.75;;;;;;;;;;5034842;28;20088;-78
2023/08/03 11:39:31;;;;;;;6.25;2.30;;;;;;;;;;5045177;28;20053;-78
2023/08/03 11:41:57;;;;;;;6.90;2.78;;;;;;;;;;5054661;28;20219;-78
2023/08/03 11:44:24;;;;;;;5.43;2.45;;;;;;;;;;5053620;28;20041;-78
2023/08/03 11:47:01;;;;;;;7.80;2.75;;;;;;;;;;5039714;28;20033;-78
2023/08/03 11:49:28;;;;;;;5.05;2.50;;;;;;;;;;5054849;28;20111;-78
2023/08/03 11:51:59;;;;;;;6.03;2.20;;;;;;;;;;5054344;28;20086;-78
2023/08/03 11:54:27;;;;;;;7.28;2.72;;;;;;;;;;5053435;28;20496;-79
2023/08/03 11:56:54;;;;;;;6.07;2.70;;;;;;;;;;5038560;28;20450;-78
2023/08/03 11:59:20;;;;;;;6.95;3.20;;;;;;;;;;5054157;28;20056;-78
2023/08/03 12:01:47;;;;;;;7.70;3.10;;;;;;;;;;5054033;28;20049;-78
2023/08/03 12:04:13;;;;;;;7.40;3.70;;;;;;;;;;5054254;28;20041;-78
2023/08/03 12:06:43;;;;;;;10.45;3.70;;;;;;;;;;5037281;28;20056;-78
2023/08/03 12:09:09;;;;;;;10.43;4.35;;;;;;;;;;5053834;28;20120;-78
2023/08/03 12:11:36;;;;;;;9.07;3.67;;;;;;;;;;5055121;28;20104;-78
2023/08/03 12:14:02;;;;;;;11.07;3.90;;;;;;;;;;5054378;28;20098;-78
2023/08/03 12:16:28;;;;;;;8.10;3.83;;;;;;;;;;5039232;28;20136;-78
2023/08/03 12:18:54;;;;;;;7.43;3.28;;;;;;;;;;5038658;28;20053;-78
2023/08/03 12:21:20;;;;;;;13.30;4.38;;;;;;;;;;5038642;28;20120;-78
2023/08/03 12:23:46;;;;;;;11.98;3.97;;;;;;;;;;5046115;28;20499;-78
2023/08/03 12:26:12;;;;;;;12.23;3.80;;;;;;;;;;5045349;28;20480;-79
2023/08/03 12:28:38;;;;;;;8.95;4.35;;;;;;;;;;5054383;28;20047;-79
2023/08/03 12:31:05;;;;;;;10.90;4.38;;;;;;;;;;5057139;28;20041;-78
2023/08/03 12:33:31;;;;;;;8.38;3.83;;;;;;;;;;5052193;28;20120;-80
2023/08/03 12:35:57;;;;;;;9.07;3.65;;;;;;;;;;5039080;28;20045;-78
2023/08/03 12:38:23;;;;;;;10.60;4.28;;;;;;;;;;5055422;28;20132;-78
2023/08/03 12:40:49;;;;;;;10.60;4.30;;;;;;;;;;5055710;28;20045;-78
2023/08/03 12:43:15;;;;;;;11.45;4.40;;;;;;;;;;5049014;28;20407;-77
2023/08/03 12:45:41;;;;;;;11.43;5.00;;;;;;;;;;5035280;28;20460;-78
2023/08/03 12:48:07;;;;;;;13.75;4.85;;;;;;;;;;5068607;28;20424;-79
2023/08/03 12:50:33;;;;;;;12.48;4.75;;;;;;;;;;5040312;28;20072;-79
2023/08/03 12:52:59;;;;;;;11.13;4.30;;;;;;;;;;5055694;28;20040;-78
2023/08/03 12:55:25;;;;;;;12.80;4.25;;;;;;;;;;5056602;28;20049;-80
2023/08/03 12:57:51;;;;;;;14.60;4.20;;;;;;;;;;5056794;28;20120;-78
2023/08/03 13:00:17;;;;;;;11.10;5.13;;;;;;;;;;5054961;28;20049;-79
2023/08/03 13:02:43;;;;;;;9.90;4.07;;;;;;;;;;5054633;28;20045;-77
2023/08/03 13:05:09;;;;;;;13.23;4.25;;;;;;;;;;5053568;28;20446;-78
2023/08/03 13:07:36;;;;;;;11.57;4.28;;;;;;;;;;5050770;28;20075;-77
2023/08/03 13:10:02;;;;;;;13.13;4.60;;;;;;;;;;5046002;28;20045;-77
2023/08/03 13:12:28;;;;;;;12.73;4.88;;;;;;;;;;5049907;28;20045;-78
2023/08/03 13:14:54;;;;;;;15.00;5.10;;;;;;;;;;5056073;28;20048;-78
2023/08/03 13:17:20;;;;;;;11.07;4.43;;;;;;;;;;5055211;28;20051;-78
2023/08/03 13:19:46;;;;;;;10.90;4.28;;;;;;;;;;5049884;28;20089;-78
2023/08/03 13:22:12;;;;;;;8.93;4.20;;;;;;;;;;5046414;28;20049;-78
2023/08/03 13:24:38;;;;;;;12.48;4.90;;;;;;;;;;5051331;28;20357;-79
2023/08/03 13:27:18;;;;;;;9.50;4.93;;;;;;;;;;5050542;28;20453;-82
2023/08/03 13:29:46;;;;;;;15.77;5.13;;;;;;;;;;5037467;28;20442;-78
2023/08/03 13:32:12;;;;;;;14.90;5.20;;;;;;;;;;5034427;28;20411;-78
2023/08/03 13:34:38;;;;;;;14.70;5.03;;;;;;;;;;5035069;28;20048;-79
2023/08/03 13:37:05;;;;;;;18.05;5.50;;;;;;;;;;5053255;28;20052;-78
2023/08/03 13:39:31;;;;;;;12.95;4.70;;;;;;;;;;5054050;28;20061;-78
2023/08/03 13:41:57;;;;;;;9.93;4.22;;;;;;;;;;5053292;28;20057;-79
2023/08/03 13:44:23;;;;;;;13.43;5.00;;;;;;;;;;5059157;28;20037;-77
2023/08/03 13:46:49;;;;;;;12.50;4.30;;;;;;;;;;5048241;28;20112;-78
2023/08/03 13:49:15;;;;;;;11.02;4.35;;;;;;;;;;5058669;28;20050;-77
2023/08/03 13:51:41;;;;;;;18.50;5.25;;;;;;;;;;5039591;28;20046;-79
2023/08/03 13:54:08;;;;;;;23.13;5.95;;;;;;;;;;5047707;28;20041;-77
2023/08/03 13:56:34;;;;;;;12.65;4.28;;;;;;;;;;5054169;28;20156;-77
2023/08/03 13:59:00;;;;;;;12.05;3.90;;;;;;;;;;5046547;28;20150;-78
2023/08/03 14:01:26;;;;;;;11.93;5.32;;;;;;;;;;5047209;28;20041;-77
2023/08/03 14:03:54;;;;;;;11.55;4.57;;;;;;;;;;5053773;28;20052;-77
2023/08/03 14:06:21;;;;;;;14.95;4.72;;;;;;;;;;5053917;28;20053;-77
2023/08/03 14:08:47;;;;;;;11.55;4.45;;;;;;;;;;5053662;28;20045;-78
2023/08/03 14:11:13;;;;;;;11.77;4.60;;;;;;;;;;5053551;28;20156;-78
2023/08/03 14:13:39;;;;;;;9.85;4.30;;;;;;;;;;5053194;28;20406;-78
2023/08/03 14:16:09;;;;;;;8.93;4.28;;;;;;;;;;5054219;28;20102;-78
2023/08/03 14:18:36;;;;;;;15.52;4.90;;;;;;;;;;5035797;28;20112;-78
2023/08/03 14:21:02;;;;;;;16.90;4.22;;;;;;;;;;5033630;28;20046;-77
2023/08/03 14:23:28;;;;;;;10.48;4.22;;;;;;;;;;5033957;28;20045;-77
2023/08/03 14:25:54;;;;;;;12.45;3.92;;;;;;;;;;5034405;28;20048;-78
2023/08/03 14:28:20;;;;;;;11.23;4.55;;;;;;;;;;5033558;28;20120;-78
2023/08/03 14:30:46;;;;;;;11.98;4.50;;;;;;;;;;5048106;28;20041;-77
2023/08/03 14:33:12;;;;;;;11.02;3.95;;;;;;;;;;5053469;28;20063;-77
2023/08/03 14:35:39;;;;;;;13.30;4.22;;;;;;;;;;5053570;28;20033;-77
2023/08/03 14:38:05;;;;;;;9.63;4.47;;;;;;;;;;5049063;28;20384;-78
2023/08/03 14:40:34;;;;;;;9.35;3.88;;;;;;;;;;5051521;28;20107;-77